Impacts METAR Board
IDs:

KLHB - Hearne Muni, TX, US

Updated at: 1300 UTC 13 Dec 2019
Potential Impact None Slight Moderate High
Time 13/01Z 13/02Z 13/03Z 13/04Z 13/05Z 13/06Z 13/07Z 13/08Z 13/09Z 13/10Z 13/11Z 13/12Z 13/13Z
Temp52 50 50 47 48 48 47 47 47 49 50 52 53
Dewpt46 45 45 44 44 45 45 44 45 47 49 51 52
Altim30.12 30.12 30.10 30.09 30.09 30.07 30.04 30.04 30.03 30.00 29.99 29.98 29.97
VIS10 10 10 10 10 10 10 10 10 10 1.25 2.5 2
CIG-- -- -- -- -- -- -- -- 16 14 2 2 3
CoverCLRCLRCLRCLRCLRCLRCLRCLRBKNOVCOVCOVCOVC
FltCatVFRVFRVFRVFRVFRVFRVFRVFRMVFRMVFRLIFRLIFRLIFR
WX--------------------BRBRBR
WDir1400001700014001400130170
WSpd3 0 0 0 3 0 0 3 0 4 0 4 4
WGst-- -- -- -- -- -- -- -- -- -- -- -- --
Raw hourly METARs
KLHB 130055Z AUTO 14003KT 10SM CLR 11/08 A3012 RMK AO2 T01100075
KLHB 130155Z AUTO 00000KT 10SM CLR 10/07 A3012 RMK AO2 T01020071
KLHB 130255Z AUTO 00000KT 10SM CLR 10/07 A3010 RMK AO2 T01020071
KLHB 130355Z AUTO 00000KT 10SM CLR 09/07 A3009 RMK AO2 T00850066
KLHB 130455Z AUTO 17003KT 10SM CLR 09/07 A3009 RMK AO2 T00870068
KLHB 130555Z AUTO 00000KT 10SM CLR 09/07 A3007 RMK AO2 T00900072 10130 20084 401540000
KLHB 130655Z AUTO 00000KT 10SM CLR 09/07 A3004 RMK AO2 T00860071
KLHB 130755Z AUTO 14003KT 10SM CLR 08/07 A3004 RMK AO2 T00810069
KLHB 130855Z AUTO 00000KT 10SM BKN016 09/07 A3003 RMK AO2 T00850072
KLHB 130955Z AUTO 14004KT 10SM OVC014 09/08 A3000 RMK AO2 T00930082
KLHB 131055Z AUTO 00000KT 1 1/4SM BR OVC002 10/10 A2999 RMK AO2 T01010095
KLHB 131155Z AUTO 13004KT 2 1/2SM BR BKN002 OVC005 11/11 A2998 RMK AO2 T01100105 10110 20080
KLHB 131255Z AUTO 17004KT 2SM BR OVC003 12/11 A2997 RMK AO2 T01180113



Page loaded:  13:51 UTC  |   05:51 AM Pacific  |   06:51 AM Mountain  |   07:51 AM Central  |   08:51 AM Eastern

 

ADVISORIES

FORECASTS

FORECASTS

OBSERVATIONS

USER TOOLS

ABOUT US